sensor_id;sensor_type;location;lat;lon;timestamp;temperature;humidity
12123;DHT22;6125;59.628;17.852;2023-02-28T00:00:01;3.00;99.90
12123;DHT22;6125;59.628;17.852;2023-02-28T00:02:34;3.00;99.90
12123;DHT22;6125;59.628;17.852;2023-02-28T00:05:01;3.00;99.90
12123;DHT22;6125;59.628;17.852;2023-02-28T00:07:29;3.00;99.90
12123;DHT22;6125;59.628;17.852;2023-02-28T00:09:56;3.00;99.90
12123;DHT22;6125;59.628;17.852;2023-02-28T00:12:24;3.00;99.90
12123;DHT22;6125;59.628;17.852;2023-02-28T00:14:51;3.00;99.90
12123;DHT22;6125;59.628;17.852;2023-02-28T00:17:19;2.90;99.90
12123;DHT22;6125;59.628;17.852;2023-02-28T00:19:47;2.90;99.90
12123;DHT22;6125;59.628;17.852;2023-02-28T00:22:14;2.90;99.90
12123;DHT22;6125;59.628;17.852;2023-02-28T00:24:41;2.90;99.90
12123;DHT22;6125;59.628;17.852;2023-02-28T00:27:09;2.90;99.90
12123;DHT22;6125;59.628;17.852;2023-02-28T00:29:37;2.90;99.90
12123;DHT22;6125;59.628;17.852;2023-02-28T00:32:05;2.90;99.90
12123;DHT22;6125;59.628;17.852;2023-02-28T00:34:32;2.90;99.90
12123;DHT22;6125;59.628;17.852;2023-02-28T00:37:03;3.00;99.90
12123;DHT22;6125;59.628;17.852;2023-02-28T00:39:33;2.90;99.90
12123;DHT22;6125;59.628;17.852;2023-02-28T00:42:00;2.90;99.90
12123;DHT22;6125;59.628;17.852;2023-02-28T00:44:28;2.80;99.90
12123;DHT22;6125;59.628;17.852;2023-02-28T00:46:56;2.80;99.90
12123;DHT22;6125;59.628;17.852;2023-02-28T00:49:24;2.70;99.90
12123;DHT22;6125;59.628;17.852;2023-02-28T00:51:51;2.60;99.90
12123;DHT22;6125;59.628;17.852;2023-02-28T00:54:19;2.60;99.90
12123;DHT22;6125;59.628;17.852;2023-02-28T00:57:06;2.50;99.90
12123;DHT22;6125;59.628;17.852;2023-02-28T00:59:33;2.50;99.90
12123;DHT22;6125;59.628;17.852;2023-02-28T01:02:08;2.50;99.90
12123;DHT22;6125;59.628;17.852;2023-02-28T01:04:35;2.50;99.90
12123;DHT22;6125;59.628;17.852;2023-02-28T01:07:02;2.50;99.90
12123;DHT22;6125;59.628;17.852;2023-02-28T01:09:29;2.50;99.90
12123;DHT22;6125;59.628;17.852;2023-02-28T01:11:56;2.50;99.90
12123;DHT22;6125;59.628;17.852;2023-02-28T01:14:24;2.40;99.90
12123;DHT22;6125;59.628;17.852;2023-02-28T01:16:51;2.40;99.90
12123;DHT22;6125;59.628;17.852;2023-02-28T01:19:19;2.40;99.90
12123;DHT22;6125;59.628;17.852;2023-02-28T01:21:46;2.40;99.90
12123;DHT22;6125;59.628;17.852;2023-02-28T01:24:13;2.50;99.90
12123;DHT22;6125;59.628;17.852;2023-02-28T01:26:40;2.50;99.90
12123;DHT22;6125;59.628;17.852;2023-02-28T01:29:07;2.50;99.90
12123;DHT22;6125;59.628;17.852;2023-02-28T01:31:34;2.50;99.90
12123;DHT22;6125;59.628;17.852;2023-02-28T01:34:02;2.40;99.90
12123;DHT22;6125;59.628;17.852;2023-02-28T01:36:30;2.30;99.90
12123;DHT22;6125;59.628;17.852;2023-02-28T01:38:57;2.20;99.90
12123;DHT22;6125;59.628;17.852;2023-02-28T01:41:27;2.20;99.90
12123;DHT22;6125;59.628;17.852;2023-02-28T01:44:00;2.10;99.90
12123;DHT22;6125;59.628;17.852;2023-02-28T01:46:30;2.20;99.90
12123;DHT22;6125;59.628;17.852;2023-02-28T01:49:02;2.20;99.90
12123;DHT22;6125;59.628;17.852;2023-02-28T01:51:35;2.20;99.90
12123;DHT22;6125;59.628;17.852;2023-02-28T01:54:07;2.20;99.90
12123;DHT22;6125;59.628;17.852;2023-02-28T01:56:42;2.10;99.90
12123;DHT22;6125;59.628;17.852;2023-02-28T01:59:12;2.00;99.90
12123;DHT22;6125;59.628;17.852;2023-02-28T02:01:40;1.90;99.90
12123;DHT22;6125;59.628;17.852;2023-02-28T02:04:07;1.80;99.90
12123;DHT22;6125;59.628;17.852;2023-02-28T02:06:40;1.80;99.90
12123;DHT22;6125;59.628;17.852;2023-02-28T02:09:09;1.80;99.90
12123;DHT22;6125;59.628;17.852;2023-02-28T02:11:36;2.00;99.90
12123;DHT22;6125;59.628;17.852;2023-02-28T02:17:09;2.40;99.90
12123;DHT22;6125;59.628;17.852;2023-02-28T02:20:06;2.60;99.90
12123;DHT22;6125;59.628;17.852;2023-02-28T02:25:59;2.80;99.90
12123;DHT22;6125;59.628;17.852;2023-02-28T02:29:08;3.00;99.90
12123;DHT22;6125;59.628;17.852;2023-02-28T02:32:15;3.10;99.90
12123;DHT22;6125;59.628;17.852;2023-02-28T02:34:56;3.40;99.90
12123;DHT22;6125;59.628;17.852;2023-02-28T02:37:31;3.50;99.90
12123;DHT22;6125;59.628;17.852;2023-02-28T02:40:06;3.70;99.90
12123;DHT22;6125;59.628;17.852;2023-02-28T02:42:40;3.90;99.90
12123;DHT22;6125;59.628;17.852;2023-02-28T02:45:11;3.90;99.90
12123;DHT22;6125;59.628;17.852;2023-02-28T02:47:40;4.00;99.90
12123;DHT22;6125;59.628;17.852;2023-02-28T02:50:14;4.00;99.90
12123;DHT22;6125;59.628;17.852;2023-02-28T02:52:46;4.00;99.90
12123;DHT22;6125;59.628;17.852;2023-02-28T02:55:15;3.90;99.90
12123;DHT22;6125;59.628;17.852;2023-02-28T02:57:47;3.90;99.90
12123;DHT22;6125;59.628;17.852;2023-02-28T03:00:16;3.80;99.90
12123;DHT22;6125;59.628;17.852;2023-02-28T03:02:46;3.70;99.90
12123;DHT22;6125;59.628;17.852;2023-02-28T03:05:20;3.60;99.90
12123;DHT22;6125;59.628;17.852;2023-02-28T03:07:48;3.60;99.90
12123;DHT22;6125;59.628;17.852;2023-02-28T03:10:33;3.60;99.90
12123;DHT22;6125;59.628;17.852;2023-02-28T03:13:12;3.60;99.90
12123;DHT22;6125;59.628;17.852;2023-02-28T03:15:50;3.50;99.90
12123;DHT22;6125;59.628;17.852;2023-02-28T03:18:25;3.40;99.90
12123;DHT22;6125;59.628;17.852;2023-02-28T03:21:02;3.40;99.90
12123;DHT22;6125;59.628;17.852;2023-02-28T03:23:38;3.40;99.90
12123;DHT22;6125;59.628;17.852;2023-02-28T03:26:13;3.40;99.90
12123;DHT22;6125;59.628;17.852;2023-02-28T03:28:51;3.40;99.90
12123;DHT22;6125;59.628;17.852;2023-02-28T03:31:22;3.50;99.90
12123;DHT22;6125;59.628;17.852;2023-02-28T03:33:58;3.50;99.90
12123;DHT22;6125;59.628;17.852;2023-02-28T03:36:30;3.60;99.90
12123;DHT22;6125;59.628;17.852;2023-02-28T03:39:00;3.60;99.90
12123;DHT22;6125;59.628;17.852;2023-02-28T03:41:32;3.60;99.90
12123;DHT22;6125;59.628;17.852;2023-02-28T03:44:06;3.50;99.90
12123;DHT22;6125;59.628;17.852;2023-02-28T03:46:37;3.60;99.90
12123;DHT22;6125;59.628;17.852;2023-02-28T03:49:09;3.60;99.90
12123;DHT22;6125;59.628;17.852;2023-02-28T03:51:41;3.60;99.90
12123;DHT22;6125;59.628;17.852;2023-02-28T03:54:14;3.60;99.90
12123;DHT22;6125;59.628;17.852;2023-02-28T03:56:47;3.70;99.90
12123;DHT22;6125;59.628;17.852;2023-02-28T03:59:17;3.60;99.90
12123;DHT22;6125;59.628;17.852;2023-02-28T04:01:47;3.70;99.90
12123;DHT22;6125;59.628;17.852;2023-02-28T04:04:15;3.60;99.90
12123;DHT22;6125;59.628;17.852;2023-02-28T04:06:45;3.70;99.90
12123;DHT22;6125;59.628;17.852;2023-02-28T04:09:13;3.60;99.90
12123;DHT22;6125;59.628;17.852;2023-02-28T04:11:42;3.60;99.90
12123;DHT22;6125;59.628;17.852;2023-02-28T04:14:11;3.60;99.90
12123;DHT22;6125;59.628;17.852;2023-02-28T04:16:40;3.60;99.90
12123;DHT22;6125;59.628;17.852;2023-02-28T04:19:09;3.60;99.90
12123;DHT22;6125;59.628;17.852;2023-02-28T04:21:38;3.60;99.90
12123;DHT22;6125;59.628;17.852;2023-02-28T04:24:08;3.50;99.90
12123;DHT22;6125;59.628;17.852;2023-02-28T04:26:40;3.50;99.90
12123;DHT22;6125;59.628;17.852;2023-02-28T04:29:10;3.50;99.90
12123;DHT22;6125;59.628;17.852;2023-02-28T04:31:37;3.50;99.90
12123;DHT22;6125;59.628;17.852;2023-02-28T04:34:04;3.50;99.90
12123;DHT22;6125;59.628;17.852;2023-02-28T04:36:32;3.50;99.90
12123;DHT22;6125;59.628;17.852;2023-02-28T04:38:59;3.50;99.90
12123;DHT22;6125;59.628;17.852;2023-02-28T04:41:27;3.40;99.90
12123;DHT22;6125;59.628;17.852;2023-02-28T04:43:55;3.40;99.90
12123;DHT22;6125;59.628;17.852;2023-02-28T04:46:22;3.40;99.90
12123;DHT22;6125;59.628;17.852;2023-02-28T04:48:50;3.40;99.90
12123;DHT22;6125;59.628;17.852;2023-02-28T04:51:18;3.30;99.90
12123;DHT22;6125;59.628;17.852;2023-02-28T04:53:45;3.30;99.90
12123;DHT22;6125;59.628;17.852;2023-02-28T04:56:14;3.30;99.90
12123;DHT22;6125;59.628;17.852;2023-02-28T04:58:43;3.20;99.90
12123;DHT22;6125;59.628;17.852;2023-02-28T05:01:19;3.20;99.90
12123;DHT22;6125;59.628;17.852;2023-02-28T05:03:47;3.10;99.90
12123;DHT22;6125;59.628;17.852;2023-02-28T05:06:14;3.10;99.90
12123;DHT22;6125;59.628;17.852;2023-02-28T05:08:41;3.00;99.90
12123;DHT22;6125;59.628;17.852;2023-02-28T05:11:14;3.00;99.90
12123;DHT22;6125;59.628;17.852;2023-02-28T05:13:43;2.90;99.90
12123;DHT22;6125;59.628;17.852;2023-02-28T05:16:10;2.80;99.90
12123;DHT22;6125;59.628;17.852;2023-02-28T05:18:37;2.80;99.90
12123;DHT22;6125;59.628;17.852;2023-02-28T05:21:05;2.70;99.90
12123;DHT22;6125;59.628;17.852;2023-02-28T05:23:32;2.60;99.90
12123;DHT22;6125;59.628;17.852;2023-02-28T05:25:59;2.60;99.90
12123;DHT22;6125;59.628;17.852;2023-02-28T05:28:26;2.50;99.90
12123;DHT22;6125;59.628;17.852;2023-02-28T05:30:54;2.50;99.90
12123;DHT22;6125;59.628;17.852;2023-02-28T05:33:21;2.40;99.90
12123;DHT22;6125;59.628;17.852;2023-02-28T05:35:48;2.40;99.90
12123;DHT22;6125;59.628;17.852;2023-02-28T05:38:15;2.30;99.90
12123;DHT22;6125;59.628;17.852;2023-02-28T05:40:43;2.20;99.90
12123;DHT22;6125;59.628;17.852;2023-02-28T05:43:10;2.20;99.90
12123;DHT22;6125;59.628;17.852;2023-02-28T05:45:38;2.10;99.90
12123;DHT22;6125;59.628;17.852;2023-02-28T05:48:08;2.00;99.90
12123;DHT22;6125;59.628;17.852;2023-02-28T05:50:35;2.00;99.90
12123;DHT22;6125;59.628;17.852;2023-02-28T05:53:02;2.00;99.90
12123;DHT22;6125;59.628;17.852;2023-02-28T05:55:30;1.90;99.90
12123;DHT22;6125;59.628;17.852;2023-02-28T05:57:57;1.80;99.90
12123;DHT22;6125;59.628;17.852;2023-02-28T06:00:25;1.90;99.90
12123;DHT22;6125;59.628;17.852;2023-02-28T06:02:52;1.80;99.90
12123;DHT22;6125;59.628;17.852;2023-02-28T06:05:23;1.80;99.90
12123;DHT22;6125;59.628;17.852;2023-02-28T06:07:50;1.80;99.90
12123;DHT22;6125;59.628;17.852;2023-02-28T06:10:17;1.80;99.90
12123;DHT22;6125;59.628;17.852;2023-02-28T06:12:45;1.80;99.90
12123;DHT22;6125;59.628;17.852;2023-02-28T06:15:13;1.80;99.90
12123;DHT22;6125;59.628;17.852;2023-02-28T06:17:41;1.90;99.90
12123;DHT22;6125;59.628;17.852;2023-02-28T06:20:09;1.90;99.90
12123;DHT22;6125;59.628;17.852;2023-02-28T06:22:39;1.90;99.90
12123;DHT22;6125;59.628;17.852;2023-02-28T06:25:07;1.90;99.90
12123;DHT22;6125;59.628;17.852;2023-02-28T06:27:34;1.90;99.90
12123;DHT22;6125;59.628;17.852;2023-02-28T06:30:02;1.90;99.90
12123;DHT22;6125;59.628;17.852;2023-02-28T06:32:29;1.90;99.90
12123;DHT22;6125;59.628;17.852;2023-02-28T06:34:56;1.90;99.90
12123;DHT22;6125;59.628;17.852;2023-02-28T06:37:23;1.90;99.90
12123;DHT22;6125;59.628;17.852;2023-02-28T06:39:54;1.90;99.90
12123;DHT22;6125;59.628;17.852;2023-02-28T06:42:22;2.00;99.90
12123;DHT22;6125;59.628;17.852;2023-02-28T06:44:50;2.00;99.90
12123;DHT22;6125;59.628;17.852;2023-02-28T06:47:17;2.00;99.90
12123;DHT22;6125;59.628;17.852;2023-02-28T06:49:44;2.00;99.90
12123;DHT22;6125;59.628;17.852;2023-02-28T06:52:11;2.00;99.90
12123;DHT22;6125;59.628;17.852;2023-02-28T06:54:38;2.00;99.90
12123;DHT22;6125;59.628;17.852;2023-02-28T06:57:07;2.10;99.90
12123;DHT22;6125;59.628;17.852;2023-02-28T06:59:34;2.10;99.90
12123;DHT22;6125;59.628;17.852;2023-02-28T07:02:02;2.10;99.90
12123;DHT22;6125;59.628;17.852;2023-02-28T07:04:29;2.20;99.90
12123;DHT22;6125;59.628;17.852;2023-02-28T07:06:56;2.20;99.90
12123;DHT22;6125;59.628;17.852;2023-02-28T07:09:23;2.20;99.90
12123;DHT22;6125;59.628;17.852;2023-02-28T07:11:55;2.20;99.90
12123;DHT22;6125;59.628;17.852;2023-02-28T07:14:24;2.30;99.90
12123;DHT22;6125;59.628;17.852;2023-02-28T07:16:51;2.30;99.90
12123;DHT22;6125;59.628;17.852;2023-02-28T07:19:18;2.30;99.90
12123;DHT22;6125;59.628;17.852;2023-02-28T07:21:45;2.30;99.90
12123;DHT22;6125;59.628;17.852;2023-02-28T07:24:12;2.30;99.90
12123;DHT22;6125;59.628;17.852;2023-02-28T07:26:41;2.30;99.90
12123;DHT22;6125;59.628;17.852;2023-02-28T07:29:08;2.30;99.90
12123;DHT22;6125;59.628;17.852;2023-02-28T07:31:37;2.30;99.90
12123;DHT22;6125;59.628;17.852;2023-02-28T07:34:04;2.40;99.90
12123;DHT22;6125;59.628;17.852;2023-02-28T07:36:31;2.40;99.90
12123;DHT22;6125;59.628;17.852;2023-02-28T07:38:59;2.50;99.90
12123;DHT22;6125;59.628;17.852;2023-02-28T07:41:26;2.50;99.90
12123;DHT22;6125;59.628;17.852;2023-02-28T07:43:55;2.60;99.90
12123;DHT22;6125;59.628;17.852;2023-02-28T07:46:23;2.60;99.90
12123;DHT22;6125;59.628;17.852;2023-02-28T07:48:52;2.60;99.90
12123;DHT22;6125;59.628;17.852;2023-02-28T07:51:21;2.70;99.90
12123;DHT22;6125;59.628;17.852;2023-02-28T07:53:49;2.80;99.90
12123;DHT22;6125;59.628;17.852;2023-02-28T07:56:16;2.80;99.90
12123;DHT22;6125;59.628;17.852;2023-02-28T07:58:43;2.90;99.90
12123;DHT22;6125;59.628;17.852;2023-02-28T08:01:11;2.90;99.90
12123;DHT22;6125;59.628;17.852;2023-02-28T08:03:39;3.00;99.90
12123;DHT22;6125;59.628;17.852;2023-02-28T08:06:15;3.10;99.90
12123;DHT22;6125;59.628;17.852;2023-02-28T08:08:43;3.10;99.90
12123;DHT22;6125;59.628;17.852;2023-02-28T08:11:10;3.20;99.90
12123;DHT22;6125;59.628;17.852;2023-02-28T08:13:37;3.30;99.90
12123;DHT22;6125;59.628;17.852;2023-02-28T08:16:05;3.30;99.90
12123;DHT22;6125;59.628;17.852;2023-02-28T08:18:32;3.40;99.90
12123;DHT22;6125;59.628;17.852;2023-02-28T08:21:04;3.40;99.90
12123;DHT22;6125;59.628;17.852;2023-02-28T08:23:33;3.40;99.90
12123;DHT22;6125;59.628;17.852;2023-02-28T08:26:00;3.50;99.90
12123;DHT22;6125;59.628;17.852;2023-02-28T08:28:27;3.60;99.90
12123;DHT22;6125;59.628;17.852;2023-02-28T08:30:55;3.60;99.90
12123;DHT22;6125;59.628;17.852;2023-02-28T08:33:22;3.60;99.90
12123;DHT22;6125;59.628;17.852;2023-02-28T08:35:52;3.60;99.90
12123;DHT22;6125;59.628;17.852;2023-02-28T08:38:20;3.60;99.90
12123;DHT22;6125;59.628;17.852;2023-02-28T08:40:49;3.70;99.90
12123;DHT22;6125;59.628;17.852;2023-02-28T08:43:16;3.70;99.90
12123;DHT22;6125;59.628;17.852;2023-02-28T08:45:43;3.80;99.90
12123;DHT22;6125;59.628;17.852;2023-02-28T08:48:10;3.90;99.90
12123;DHT22;6125;59.628;17.852;2023-02-28T08:50:37;4.00;99.90
12123;DHT22;6125;59.628;17.852;2023-02-28T08:53:04;4.10;99.90
12123;DHT22;6125;59.628;17.852;2023-02-28T08:55:31;4.20;99.90
12123;DHT22;6125;59.628;17.852;2023-02-28T08:57:59;4.30;99.90
12123;DHT22;6125;59.628;17.852;2023-02-28T09:00:27;4.40;99.90
12123;DHT22;6125;59.628;17.852;2023-02-28T09:02:54;4.50;99.90
12123;DHT22;6125;59.628;17.852;2023-02-28T09:05:21;4.50;99.90
12123;DHT22;6125;59.628;17.852;2023-02-28T09:07:49;4.60;99.90
12123;DHT22;6125;59.628;17.852;2023-02-28T09:10:16;4.70;99.90
12123;DHT22;6125;59.628;17.852;2023-02-28T09:12:43;4.70;99.90
12123;DHT22;6125;59.628;17.852;2023-02-28T09:15:13;4.80;99.90
12123;DHT22;6125;59.628;17.852;2023-02-28T09:17:41;4.90;99.90
12123;DHT22;6125;59.628;17.852;2023-02-28T09:20:09;5.10;99.90
12123;DHT22;6125;59.628;17.852;2023-02-28T09:22:36;5.20;99.90
12123;DHT22;6125;59.628;17.852;2023-02-28T09:25:04;5.30;99.90
12123;DHT22;6125;59.628;17.852;2023-02-28T09:27:31;5.40;99.90
12123;DHT22;6125;59.628;17.852;2023-02-28T09:29:58;5.40;99.90
12123;DHT22;6125;59.628;17.852;2023-02-28T09:32:26;5.50;99.90
12123;DHT22;6125;59.628;17.852;2023-02-28T09:34:54;5.60;99.90
12123;DHT22;6125;59.628;17.852;2023-02-28T09:37:21;5.70;99.90
12123;DHT22;6125;59.628;17.852;2023-02-28T09:39:49;5.70;99.90
12123;DHT22;6125;59.628;17.852;2023-02-28T09:42:22;5.80;99.90
12123;DHT22;6125;59.628;17.852;2023-02-28T09:44:53;5.80;99.90
12123;DHT22;6125;59.628;17.852;2023-02-28T09:47:29;5.80;99.90
12123;DHT22;6125;59.628;17.852;2023-02-28T09:50:06;5.80;99.90
12123;DHT22;6125;59.628;17.852;2023-02-28T09:52:38;5.80;99.90
12123;DHT22;6125;59.628;17.852;2023-02-28T09:55:20;5.70;99.90
12123;DHT22;6125;59.628;17.852;2023-02-28T09:57:50;5.70;99.90
12123;DHT22;6125;59.628;17.852;2023-02-28T10:00:20;5.70;99.90
12123;DHT22;6125;59.628;17.852;2023-02-28T10:02:58;5.70;99.90
12123;DHT22;6125;59.628;17.852;2023-02-28T10:05:31;5.70;99.90
12123;DHT22;6125;59.628;17.852;2023-02-28T10:08:04;5.80;99.90
12123;DHT22;6125;59.628;17.852;2023-02-28T10:10:39;5.80;99.90
12123;DHT22;6125;59.628;17.852;2023-02-28T10:13:15;5.80;99.90
12123;DHT22;6125;59.628;17.852;2023-02-28T10:15:45;5.90;99.90
12123;DHT22;6125;59.628;17.852;2023-02-28T10:18:19;5.90;99.90
12123;DHT22;6125;59.628;17.852;2023-02-28T10:20:49;6.00;99.90
12123;DHT22;6125;59.628;17.852;2023-02-28T10:23:21;6.10;99.90
12123;DHT22;6125;59.628;17.852;2023-02-28T10:25:54;6.10;99.90
12123;DHT22;6125;59.628;17.852;2023-02-28T10:28:21;6.20;99.90
12123;DHT22;6125;59.628;17.852;2023-02-28T10:30:50;6.20;99.90
12123;DHT22;6125;59.628;17.852;2023-02-28T10:33:23;6.30;99.90
12123;DHT22;6125;59.628;17.852;2023-02-28T10:35:51;6.40;99.90
12123;DHT22;6125;59.628;17.852;2023-02-28T10:38:20;6.60;99.90
12123;DHT22;6125;59.628;17.852;2023-02-28T10:40:47;6.70;99.90
12123;DHT22;6125;59.628;17.852;2023-02-28T10:43:23;6.90;99.90
12123;DHT22;6125;59.628;17.852;2023-02-28T10:46:02;7.00;99.90
12123;DHT22;6125;59.628;17.852;2023-02-28T10:48:35;7.20;99.90
12123;DHT22;6125;59.628;17.852;2023-02-28T10:51:05;7.30;99.90
12123;DHT22;6125;59.628;17.852;2023-02-28T10:53:48;7.50;99.90
12123;DHT22;6125;59.628;17.852;2023-02-28T10:56:18;7.50;99.90
12123;DHT22;6125;59.628;17.852;2023-02-28T10:58:52;7.60;99.90
12123;DHT22;6125;59.628;17.852;2023-02-28T11:01:21;7.60;99.90
12123;DHT22;6125;59.628;17.852;2023-02-28T11:03:51;7.70;99.90
12123;DHT22;6125;59.628;17.852;2023-02-28T11:06:20;7.80;99.90
12123;DHT22;6125;59.628;17.852;2023-02-28T11:08:51;8.00;99.90
12123;DHT22;6125;59.628;17.852;2023-02-28T11:11:20;8.00;99.90
12123;DHT22;6125;59.628;17.852;2023-02-28T11:13:51;8.10;99.90
12123;DHT22;6125;59.628;17.852;2023-02-28T11:16:19;8.20;99.90
12123;DHT22;6125;59.628;17.852;2023-02-28T11:18:51;8.40;99.90
12123;DHT22;6125;59.628;17.852;2023-02-28T11:21:22;8.50;99.90
12123;DHT22;6125;59.628;17.852;2023-02-28T11:23:52;8.60;99.90
12123;DHT22;6125;59.628;17.852;2023-02-28T11:26:39;8.70;99.90
12123;DHT22;6125;59.628;17.852;2023-02-28T11:29:17;8.80;99.90
12123;DHT22;6125;59.628;17.852;2023-02-28T11:32:01;8.90;99.90
12123;DHT22;6125;59.628;17.852;2023-02-28T11:34:31;9.00;99.90
12123;DHT22;6125;59.628;17.852;2023-02-28T11:36:59;9.10;99.90
12123;DHT22;6125;59.628;17.852;2023-02-28T11:39:31;9.20;99.90
12123;DHT22;6125;59.628;17.852;2023-02-28T11:42:37;9.20;99.90
12123;DHT22;6125;59.628;17.852;2023-02-28T11:45:18;9.30;99.90
12123;DHT22;6125;59.628;17.852;2023-02-28T11:47:51;9.30;99.90
12123;DHT22;6125;59.628;17.852;2023-02-28T11:50:46;9.30;99.90
12123;DHT22;6125;59.628;17.852;2023-02-28T11:53:22;9.30;99.90
12123;DHT22;6125;59.628;17.852;2023-02-28T11:55:54;9.30;99.90
12123;DHT22;6125;59.628;17.852;2023-02-28T11:58:32;9.30;99.90
12123;DHT22;6125;59.628;17.852;2023-02-28T12:01:09;9.30;99.90
12123;DHT22;6125;59.628;17.852;2023-02-28T12:03:45;9.20;99.90
12123;DHT22;6125;59.628;17.852;2023-02-28T12:06:23;9.10;99.90
12123;DHT22;6125;59.628;17.852;2023-02-28T12:09:09;9.10;99.90
12123;DHT22;6125;59.628;17.852;2023-02-28T12:11:50;9.10;99.90
12123;DHT22;6125;59.628;17.852;2023-02-28T12:14:30;9.20;99.90
12123;DHT22;6125;59.628;17.852;2023-02-28T12:17:16;9.10;99.90
12123;DHT22;6125;59.628;17.852;2023-02-28T12:19:53;9.20;99.90
12123;DHT22;6125;59.628;17.852;2023-02-28T12:22:30;9.20;99.90
12123;DHT22;6125;59.628;17.852;2023-02-28T12:25:28;9.20;99.90
12123;DHT22;6125;59.628;17.852;2023-02-28T12:27:59;9.20;99.90
12123;DHT22;6125;59.628;17.852;2023-02-28T12:30:28;9.30;99.90
12123;DHT22;6125;59.628;17.852;2023-02-28T12:33:02;9.30;99.90
12123;DHT22;6125;59.628;17.852;2023-02-28T12:35:34;9.40;99.90
12123;DHT22;6125;59.628;17.852;2023-02-28T12:38:10;9.50;99.90
12123;DHT22;6125;59.628;17.852;2023-02-28T12:40:44;9.60;99.90
12123;DHT22;6125;59.628;17.852;2023-02-28T12:43:15;9.70;99.90
12123;DHT22;6125;59.628;17.852;2023-02-28T12:45:45;9.70;99.90
12123;DHT22;6125;59.628;17.852;2023-02-28T12:48:17;9.60;99.90
12123;DHT22;6125;59.628;17.852;2023-02-28T12:50:45;9.60;99.90
12123;DHT22;6125;59.628;17.852;2023-02-28T12:53:21;9.60;99.90
12123;DHT22;6125;59.628;17.852;2023-02-28T12:55:59;9.60;99.90
12123;DHT22;6125;59.628;17.852;2023-02-28T12:58:34;9.80;99.90
12123;DHT22;6125;59.628;17.852;2023-02-28T13:01:20;9.80;99.90
12123;DHT22;6125;59.628;17.852;2023-02-28T13:04:16;9.70;99.90
12123;DHT22;6125;59.628;17.852;2023-02-28T13:07:08;9.90;99.90
12123;DHT22;6125;59.628;17.852;2023-02-28T13:09:40;10.10;99.90
12123;DHT22;6125;59.628;17.852;2023-02-28T13:12:13;10.10;99.90
12123;DHT22;6125;59.628;17.852;2023-02-28T13:14:41;10.20;99.90
12123;DHT22;6125;59.628;17.852;2023-02-28T13:17:12;10.30;99.90
12123;DHT22;6125;59.628;17.852;2023-02-28T13:19:42;10.50;99.90
12123;DHT22;6125;59.628;17.852;2023-02-28T13:22:19;10.60;99.90
12123;DHT22;6125;59.628;17.852;2023-02-28T13:24:48;10.70;99.90
12123;DHT22;6125;59.628;17.852;2023-02-28T13:27:35;10.70;99.90
12123;DHT22;6125;59.628;17.852;2023-02-28T13:33:23;10.50;99.90
12123;DHT22;6125;59.628;17.852;2023-02-28T13:36:08;10.40;99.90
12123;DHT22;6125;59.628;17.852;2023-02-28T13:38:40;10.30;99.90
12123;DHT22;6125;59.628;17.852;2023-02-28T13:44:11;10.10;99.90
12123;DHT22;6125;59.628;17.852;2023-02-28T13:49:40;10.00;99.90
12123;DHT22;6125;59.628;17.852;2023-02-28T13:52:14;9.90;99.90
12123;DHT22;6125;59.628;17.852;2023-02-28T13:54:57;9.90;99.90
12123;DHT22;6125;59.628;17.852;2023-02-28T13:57:35;9.90;99.90
12123;DHT22;6125;59.628;17.852;2023-02-28T14:00:21;9.90;99.90
12123;DHT22;6125;59.628;17.852;2023-02-28T14:03:17;9.90;99.90
12123;DHT22;6125;59.628;17.852;2023-02-28T14:06:15;10.00;99.90
12123;DHT22;6125;59.628;17.852;2023-02-28T14:08:50;10.00;99.90
12123;DHT22;6125;59.628;17.852;2023-02-28T14:11:31;10.00;99.90
12123;DHT22;6125;59.628;17.852;2023-02-28T14:13:58;10.10;99.90
12123;DHT22;6125;59.628;17.852;2023-02-28T14:16:34;10.10;99.90
12123;DHT22;6125;59.628;17.852;2023-02-28T14:19:09;10.10;99.90
12123;DHT22;6125;59.628;17.852;2023-02-28T14:21:43;10.10;99.90
12123;DHT22;6125;59.628;17.852;2023-02-28T14:24:37;10.10;99.90
12123;DHT22;6125;59.628;17.852;2023-02-28T14:27:22;10.10;99.90
12123;DHT22;6125;59.628;17.852;2023-02-28T14:30:19;10.10;99.90
12123;DHT22;6125;59.628;17.852;2023-02-28T14:33:04;10.00;99.90
12123;DHT22;6125;59.628;17.852;2023-02-28T14:35:59;9.90;99.90
12123;DHT22;6125;59.628;17.852;2023-02-28T14:38:30;9.80;99.90
12123;DHT22;6125;59.628;17.852;2023-02-28T14:41:01;9.70;99.90
12123;DHT22;6125;59.628;17.852;2023-02-28T14:43:29;9.60;99.90
12123;DHT22;6125;59.628;17.852;2023-02-28T14:45:58;9.50;99.90
12123;DHT22;6125;59.628;17.852;2023-02-28T14:48:27;9.50;99.90
12123;DHT22;6125;59.628;17.852;2023-02-28T14:50:57;9.50;99.90
12123;DHT22;6125;59.628;17.852;2023-02-28T14:53:28;9.40;99.90
12123;DHT22;6125;59.628;17.852;2023-02-28T14:55:55;9.40;99.90
12123;DHT22;6125;59.628;17.852;2023-02-28T14:58:25;9.40;99.90
12123;DHT22;6125;59.628;17.852;2023-02-28T15:00:54;9.30;99.90
12123;DHT22;6125;59.628;17.852;2023-02-28T15:03:24;9.30;99.90
12123;DHT22;6125;59.628;17.852;2023-02-28T15:05:54;9.20;99.90
12123;DHT22;6125;59.628;17.852;2023-02-28T15:08:23;9.20;99.90
12123;DHT22;6125;59.628;17.852;2023-02-28T15:10:54;9.10;99.90
12123;DHT22;6125;59.628;17.852;2023-02-28T15:13:22;9.10;99.90
12123;DHT22;6125;59.628;17.852;2023-02-28T15:15:53;9.00;99.90
12123;DHT22;6125;59.628;17.852;2023-02-28T15:18:30;9.10;99.90
12123;DHT22;6125;59.628;17.852;2023-02-28T15:21:01;9.00;99.90
12123;DHT22;6125;59.628;17.852;2023-02-28T15:23:29;8.90;99.90
12123;DHT22;6125;59.628;17.852;2023-02-28T15:25:57;8.90;99.90
12123;DHT22;6125;59.628;17.852;2023-02-28T15:28:25;8.70;99.90
12123;DHT22;6125;59.628;17.852;2023-02-28T15:30:56;8.60;99.90
12123;DHT22;6125;59.628;17.852;2023-02-28T15:33:24;8.50;99.90
12123;DHT22;6125;59.628;17.852;2023-02-28T15:36:04;8.50;99.90
12123;DHT22;6125;59.628;17.852;2023-02-28T15:38:35;8.40;99.90
12123;DHT22;6125;59.628;17.852;2023-02-28T15:41:02;8.20;99.90
12123;DHT22;6125;59.628;17.852;2023-02-28T15:43:35;8.20;99.90
12123;DHT22;6125;59.628;17.852;2023-02-28T15:46:04;8.10;99.90
12123;DHT22;6125;59.628;17.852;2023-02-28T15:48:35;8.10;99.90
12123;DHT22;6125;59.628;17.852;2023-02-28T15:51:07;8.00;99.90
12123;DHT22;6125;59.628;17.852;2023-02-28T15:53:39;7.90;99.90
12123;DHT22;6125;59.628;17.852;2023-02-28T15:56:21;7.80;99.90
12123;DHT22;6125;59.628;17.852;2023-02-28T15:58:49;7.70;99.90
12123;DHT22;6125;59.628;17.852;2023-02-28T16:01:23;7.60;99.90
12123;DHT22;6125;59.628;17.852;2023-02-28T16:03:53;7.50;99.90
12123;DHT22;6125;59.628;17.852;2023-02-28T16:06:30;7.40;99.90
12123;DHT22;6125;59.628;17.852;2023-02-28T16:08:58;7.30;99.90
12123;DHT22;6125;59.628;17.852;2023-02-28T16:11:25;7.30;99.90
12123;DHT22;6125;59.628;17.852;2023-02-28T16:13:53;7.20;99.90
12123;DHT22;6125;59.628;17.852;2023-02-28T16:16:22;7.10;99.90
12123;DHT22;6125;59.628;17.852;2023-02-28T16:18:51;7.00;99.90
12123;DHT22;6125;59.628;17.852;2023-02-28T16:21:18;7.00;99.90
12123;DHT22;6125;59.628;17.852;2023-02-28T16:23:46;6.90;99.90
12123;DHT22;6125;59.628;17.852;2023-02-28T16:26:19;6.90;99.90